sensor_id;sensor_type;location;lat;lon;timestamp;temperature;humidity
26270;DHT22;15937;50.612;6.656;2022-12-18T00:01:38;-3.30;99.90
26270;DHT22;15937;50.612;6.656;2022-12-18T00:05:46;-3.30;99.90
26270;DHT22;15937;50.612;6.656;2022-12-18T00:09:49;-3.20;99.90
26270;DHT22;15937;50.612;6.656;2022-12-18T00:13:51;-3.10;99.90
26270;DHT22;15937;50.612;6.656;2022-12-18T00:17:53;-3.00;99.90
26270;DHT22;15937;50.612;6.656;2022-12-18T00:21:54;-2.90;99.90
26270;DHT22;15937;50.612;6.656;2022-12-18T00:26:00;-2.90;99.90
26270;DHT22;15937;50.612;6.656;2022-12-18T00:30:02;-3.00;99.90
26270;DHT22;15937;50.612;6.656;2022-12-18T00:34:03;-3.20;99.90
26270;DHT22;15937;50.612;6.656;2022-12-18T00:38:05;-3.30;99.90
26270;DHT22;15937;50.612;6.656;2022-12-18T00:42:08;-3.40;99.90
26270;DHT22;15937;50.612;6.656;2022-12-18T00:46:30;-3.50;99.90
26270;DHT22;15937;50.612;6.656;2022-12-18T00:50:32;-3.60;99.90
26270;DHT22;15937;50.612;6.656;2022-12-18T00:54:33;-3.70;99.90
26270;DHT22;15937;50.612;6.656;2022-12-18T00:58:35;-3.70;99.90
26270;DHT22;15937;50.612;6.656;2022-12-18T01:02:36;-3.80;99.90
26270;DHT22;15937;50.612;6.656;2022-12-18T01:06:38;-3.70;99.90
26270;DHT22;15937;50.612;6.656;2022-12-18T01:10:41;-3.70;99.90
26270;DHT22;15937;50.612;6.656;2022-12-18T01:14:42;-3.60;99.90
26270;DHT22;15937;50.612;6.656;2022-12-18T01:18:44;-3.40;99.90
26270;DHT22;15937;50.612;6.656;2022-12-18T01:22:46;-3.40;99.90
26270;DHT22;15937;50.612;6.656;2022-12-18T01:26:48;-3.20;99.90
26270;DHT22;15937;50.612;6.656;2022-12-18T01:30:49;-3.30;99.90
26270;DHT22;15937;50.612;6.656;2022-12-18T01:34:51;-3.30;99.90
26270;DHT22;15937;50.612;6.656;2022-12-18T01:38:53;-3.20;99.90
26270;DHT22;15937;50.612;6.656;2022-12-18T01:42:54;-3.20;99.90
26270;DHT22;15937;50.612;6.656;2022-12-18T01:46:56;-3.20;99.90
26270;DHT22;15937;50.612;6.656;2022-12-18T01:50:58;-3.20;99.90
26270;DHT22;15937;50.612;6.656;2022-12-18T01:55:00;-3.20;99.90
26270;DHT22;15937;50.612;6.656;2022-12-18T01:59:02;-3.30;99.90
26270;DHT22;15937;50.612;6.656;2022-12-18T02:03:04;-3.30;99.90
26270;DHT22;15937;50.612;6.656;2022-12-18T02:15:36;-3.00;99.90
26270;DHT22;15937;50.612;6.656;2022-12-18T02:28:06;-3.00;99.90
26270;DHT22;15937;50.612;6.656;2022-12-18T02:32:11;-3.00;99.90
26270;DHT22;15937;50.612;6.656;2022-12-18T02:36:14;-2.90;99.90
26270;DHT22;15937;50.612;6.656;2022-12-18T02:40:17;-3.00;99.90
26270;DHT22;15937;50.612;6.656;2022-12-18T02:44:20;-3.00;99.90
26270;DHT22;15937;50.612;6.656;2022-12-18T02:48:31;-3.10;99.90
26270;DHT22;15937;50.612;6.656;2022-12-18T02:52:35;-3.20;99.90
26270;DHT22;15937;50.612;6.656;2022-12-18T02:56:43;-3.20;99.90
26270;DHT22;15937;50.612;6.656;2022-12-18T03:00:55;-3.10;99.90
26270;DHT22;15937;50.612;6.656;2022-12-18T03:05:13;-3.10;99.90
26270;DHT22;15937;50.612;6.656;2022-12-18T03:09:20;-2.90;99.90
26270;DHT22;15937;50.612;6.656;2022-12-18T03:13:56;-2.70;99.90
26270;DHT22;15937;50.612;6.656;2022-12-18T03:17:52;-2.80;99.90
26270;DHT22;15937;50.612;6.656;2022-12-18T03:21:57;-2.70;99.90
26270;DHT22;15937;50.612;6.656;2022-12-18T03:26:02;-2.70;99.90
26270;DHT22;15937;50.612;6.656;2022-12-18T03:30:08;-2.80;99.90
26270;DHT22;15937;50.612;6.656;2022-12-18T03:34:19;-2.90;99.90
26270;DHT22;15937;50.612;6.656;2022-12-18T03:38:23;-2.90;99.90
26270;DHT22;15937;50.612;6.656;2022-12-18T03:42:29;-2.90;99.90
26270;DHT22;15937;50.612;6.656;2022-12-18T03:46:48;-2.80;99.90
26270;DHT22;15937;50.612;6.656;2022-12-18T03:50:59;-2.70;99.90
26270;DHT22;15937;50.612;6.656;2022-12-18T03:55:03;-2.60;99.90
26270;DHT22;15937;50.612;6.656;2022-12-18T03:59:06;-2.70;99.90
26270;DHT22;15937;50.612;6.656;2022-12-18T04:03:09;-2.70;99.90
26270;DHT22;15937;50.612;6.656;2022-12-18T04:07:11;-2.70;99.90
26270;DHT22;15937;50.612;6.656;2022-12-18T04:11:14;-2.80;99.90
26270;DHT22;15937;50.612;6.656;2022-12-18T04:15:16;-2.90;99.90
26270;DHT22;15937;50.612;6.656;2022-12-18T04:19:18;-2.90;99.90
26270;DHT22;15937;50.612;6.656;2022-12-18T04:23:19;-2.80;99.90
26270;DHT22;15937;50.612;6.656;2022-12-18T04:27:21;-2.80;99.90
26270;DHT22;15937;50.612;6.656;2022-12-18T04:31:23;-2.70;99.90
26270;DHT22;15937;50.612;6.656;2022-12-18T04:35:24;-2.80;99.90
26270;DHT22;15937;50.612;6.656;2022-12-18T04:39:26;-2.80;99.90
26270;DHT22;15937;50.612;6.656;2022-12-18T04:43:28;-2.80;99.90
26270;DHT22;15937;50.612;6.656;2022-12-18T04:47:29;-2.70;99.90
26270;DHT22;15937;50.612;6.656;2022-12-18T04:51:31;-2.70;99.90
26270;DHT22;15937;50.612;6.656;2022-12-18T04:55:33;-2.80;99.90
26270;DHT22;15937;50.612;6.656;2022-12-18T04:59:35;-2.80;99.90
26270;DHT22;15937;50.612;6.656;2022-12-18T05:03:37;-2.80;99.90
26270;DHT22;15937;50.612;6.656;2022-12-18T05:07:39;-2.80;99.90
26270;DHT22;15937;50.612;6.656;2022-12-18T05:11:41;-2.80;99.90
26270;DHT22;15937;50.612;6.656;2022-12-18T05:15:43;-2.70;99.90
26270;DHT22;15937;50.612;6.656;2022-12-18T05:19:52;-2.80;99.90
26270;DHT22;15937;50.612;6.656;2022-12-18T05:23:54;-2.60;99.90
26270;DHT22;15937;50.612;6.656;2022-12-18T05:27:55;-2.60;99.90
26270;DHT22;15937;50.612;6.656;2022-12-18T05:31:58;-2.60;99.90
26270;DHT22;15937;50.612;6.656;2022-12-18T05:36:03;-2.50;99.90
26270;DHT22;15937;50.612;6.656;2022-12-18T05:40:06;-2.50;99.90
26270;DHT22;15937;50.612;6.656;2022-12-18T05:44:08;-2.50;99.90
26270;DHT22;15937;50.612;6.656;2022-12-18T05:48:09;-2.10;99.90
26270;DHT22;15937;50.612;6.656;2022-12-18T05:52:14;-2.10;99.90
26270;DHT22;15937;50.612;6.656;2022-12-18T05:56:18;-2.30;99.90
26270;DHT22;15937;50.612;6.656;2022-12-18T06:00:20;-2.30;99.90
26270;DHT22;15937;50.612;6.656;2022-12-18T06:04:22;-2.30;99.90
26270;DHT22;15937;50.612;6.656;2022-12-18T06:08:24;-2.30;99.90
26270;DHT22;15937;50.612;6.656;2022-12-18T06:12:25;-2.40;99.90
26270;DHT22;15937;50.612;6.656;2022-12-18T06:16:27;-2.40;99.90
26270;DHT22;15937;50.612;6.656;2022-12-18T06:20:29;-2.50;99.90
26270;DHT22;15937;50.612;6.656;2022-12-18T06:24:34;-2.50;99.90
26270;DHT22;15937;50.612;6.656;2022-12-18T06:28:36;-2.60;99.90
26270;DHT22;15937;50.612;6.656;2022-12-18T06:32:37;-2.70;99.90
26270;DHT22;15937;50.612;6.656;2022-12-18T06:36:39;-2.70;99.90
26270;DHT22;15937;50.612;6.656;2022-12-18T06:40:42;-2.70;99.90
26270;DHT22;15937;50.612;6.656;2022-12-18T06:44:43;-2.80;99.90
26270;DHT22;15937;50.612;6.656;2022-12-18T06:48:46;-2.90;99.90
26270;DHT22;15937;50.612;6.656;2022-12-18T06:52:48;-2.90;99.90
26270;DHT22;15937;50.612;6.656;2022-12-18T06:56:49;-2.80;99.90
26270;DHT22;15937;50.612;6.656;2022-12-18T07:00:51;-2.80;99.90
26270;DHT22;15937;50.612;6.656;2022-12-18T07:04:53;-2.90;99.90
26270;DHT22;15937;50.612;6.656;2022-12-18T07:08:54;-2.80;99.90
26270;DHT22;15937;50.612;6.656;2022-12-18T07:12:56;-2.70;99.90
26270;DHT22;15937;50.612;6.656;2022-12-18T07:16:58;-2.60;99.90
26270;DHT22;15937;50.612;6.656;2022-12-18T07:21:07;-2.60;99.90
26270;DHT22;15937;50.612;6.656;2022-12-18T07:25:09;-2.70;99.90
26270;DHT22;15937;50.612;6.656;2022-12-18T07:29:11;-2.70;99.90
26270;DHT22;15937;50.612;6.656;2022-12-18T07:33:12;-2.70;99.90
26270;DHT22;15937;50.612;6.656;2022-12-18T07:37:14;-2.80;99.90
26270;DHT22;15937;50.612;6.656;2022-12-18T07:41:16;-2.70;99.90
26270;DHT22;15937;50.612;6.656;2022-12-18T07:45:17;-2.70;99.90
26270;DHT22;15937;50.612;6.656;2022-12-18T07:49:19;-2.60;99.90
26270;DHT22;15937;50.612;6.656;2022-12-18T07:53:21;-2.60;99.90
26270;DHT22;15937;50.612;6.656;2022-12-18T07:57:22;-2.60;99.90
26270;DHT22;15937;50.612;6.656;2022-12-18T08:01:44;-2.50;99.90
26270;DHT22;15937;50.612;6.656;2022-12-18T08:05:47;-2.40;99.90
26270;DHT22;15937;50.612;6.656;2022-12-18T08:09:49;-2.40;99.90
26270;DHT22;15937;50.612;6.656;2022-12-18T08:13:51;-2.30;99.90
26270;DHT22;15937;50.612;6.656;2022-12-18T08:17:55;-2.20;99.90
26270;DHT22;15937;50.612;6.656;2022-12-18T08:21:57;-2.20;99.90
26270;DHT22;15937;50.612;6.656;2022-12-18T08:25:59;-2.10;99.90
26270;DHT22;15937;50.612;6.656;2022-12-18T08:30:00;-2.10;99.90
26270;DHT22;15937;50.612;6.656;2022-12-18T08:34:02;-2.00;99.90
26270;DHT22;15937;50.612;6.656;2022-12-18T08:38:04;-1.90;99.90
26270;DHT22;15937;50.612;6.656;2022-12-18T08:42:06;-1.70;99.90
26270;DHT22;15937;50.612;6.656;2022-12-18T08:46:31;-1.50;99.90
26270;DHT22;15937;50.612;6.656;2022-12-18T08:50:38;-1.60;99.90
26270;DHT22;15937;50.612;6.656;2022-12-18T08:54:47;-1.60;99.90
26270;DHT22;15937;50.612;6.656;2022-12-18T08:58:52;-1.50;99.90
26270;DHT22;15937;50.612;6.656;2022-12-18T09:02:54;-1.30;99.90
26270;DHT22;15937;50.612;6.656;2022-12-18T09:06:56;-1.20;99.90
26270;DHT22;15937;50.612;6.656;2022-12-18T09:10:58;-1.10;99.90
26270;DHT22;15937;50.612;6.656;2022-12-18T09:15:00;-1.10;99.90
26270;DHT22;15937;50.612;6.656;2022-12-18T09:19:02;-1.10;99.90
26270;DHT22;15937;50.612;6.656;2022-12-18T09:23:05;-0.90;99.90
26270;DHT22;15937;50.612;6.656;2022-12-18T09:27:08;-0.80;99.90
26270;DHT22;15937;50.612;6.656;2022-12-18T09:31:11;-0.60;99.90
26270;DHT22;15937;50.612;6.656;2022-12-18T09:35:12;-0.50;99.90
26270;DHT22;15937;50.612;6.656;2022-12-18T09:39:14;-0.40;99.90
26270;DHT22;15937;50.612;6.656;2022-12-18T09:43:18;-0.30;99.90
26270;DHT22;15937;50.612;6.656;2022-12-18T09:47:28;-0.20;99.90
26270;DHT22;15937;50.612;6.656;2022-12-18T09:51:42;-0.10;99.90
26270;DHT22;15937;50.612;6.656;2022-12-18T09:55:46;0.10;99.90
26270;DHT22;15937;50.612;6.656;2022-12-18T09:59:51;0.20;99.90
26270;DHT22;15937;50.612;6.656;2022-12-18T10:03:53;0.40;99.90
26270;DHT22;15937;50.612;6.656;2022-12-18T10:07:58;0.60;99.90
26270;DHT22;15937;50.612;6.656;2022-12-18T10:21:13;0.80;99.90
26270;DHT22;15937;50.612;6.656;2022-12-18T10:29:18;1.00;99.60
26270;DHT22;15937;50.612;6.656;2022-12-18T10:33:22;0.90;99.90
26270;DHT22;15937;50.612;6.656;2022-12-18T10:37:25;0.90;99.80
26270;DHT22;15937;50.612;6.656;2022-12-18T10:41:27;0.90;99.00
26270;DHT22;15937;50.612;6.656;2022-12-18T10:46:00;0.90;99.10
26270;DHT22;15937;50.612;6.656;2022-12-18T10:50:10;0.90;97.90
26270;DHT22;15937;50.612;6.656;2022-12-18T10:54:23;0.90;98.40
26270;DHT22;15937;50.612;6.656;2022-12-18T10:58:32;0.90;98.90
26270;DHT22;15937;50.612;6.656;2022-12-18T11:02:35;1.00;98.00
26270;DHT22;15937;50.612;6.656;2022-12-18T11:06:52;1.00;98.40
26270;DHT22;15937;50.612;6.656;2022-12-18T11:10:54;1.00;98.90
26270;DHT22;15937;50.612;6.656;2022-12-18T11:14:56;1.10;98.40
26270;DHT22;15937;50.612;6.656;2022-12-18T11:23:33;1.20;98.10
26270;DHT22;15937;50.612;6.656;2022-12-18T11:27:35;1.20;98.40
26270;DHT22;15937;50.612;6.656;2022-12-18T11:31:37;1.10;99.90
26270;DHT22;15937;50.612;6.656;2022-12-18T11:35:52;1.00;99.90
26270;DHT22;15937;50.612;6.656;2022-12-18T11:40:02;1.00;99.90
26270;DHT22;15937;50.612;6.656;2022-12-18T11:44:04;1.20;99.90
26270;DHT22;15937;50.612;6.656;2022-12-18T11:48:15;1.40;98.50
26270;DHT22;15937;50.612;6.656;2022-12-18T11:52:19;1.40;98.30
26270;DHT22;15937;50.612;6.656;2022-12-18T11:56:32;1.40;99.30
26270;DHT22;15937;50.612;6.656;2022-12-18T12:00:37;1.50;97.80
26270;DHT22;15937;50.612;6.656;2022-12-18T12:04:46;1.50;98.60
26270;DHT22;15937;50.612;6.656;2022-12-18T12:08:56;1.50;98.70
26270;DHT22;15937;50.612;6.656;2022-12-18T12:21:26;1.40;99.70
26270;DHT22;15937;50.612;6.656;2022-12-18T12:25:37;1.40;99.30
26270;DHT22;15937;50.612;6.656;2022-12-18T12:30:02;1.60;97.90
26270;DHT22;15937;50.612;6.656;2022-12-18T12:38:31;1.80;96.60
26270;DHT22;15937;50.612;6.656;2022-12-18T12:42:38;1.90;96.00
26270;DHT22;15937;50.612;6.656;2022-12-18T12:47:04;1.90;96.00
26270;DHT22;15937;50.612;6.656;2022-12-18T12:51:52;2.10;95.50
26270;DHT22;15937;50.612;6.656;2022-12-18T12:55:32;2.10;96.10
26270;DHT22;15937;50.612;6.656;2022-12-18T13:07:58;2.00;96.70
26270;DHT22;15937;50.612;6.656;2022-12-18T13:12:05;2.00;95.50
26270;DHT22;15937;50.612;6.656;2022-12-18T13:16:35;1.90;96.20
26270;DHT22;15937;50.612;6.656;2022-12-18T13:20:37;2.00;95.40
26270;DHT22;15937;50.612;6.656;2022-12-18T13:24:40;2.00;95.40
26270;DHT22;15937;50.612;6.656;2022-12-18T13:32:52;2.00;96.20
26270;DHT22;15937;50.612;6.656;2022-12-18T13:41:31;2.00;97.50
26270;DHT22;15937;50.612;6.656;2022-12-18T13:49:43;1.90;99.10
26270;DHT22;15937;50.612;6.656;2022-12-18T13:53:50;1.80;99.60
26270;DHT22;15937;50.612;6.656;2022-12-18T13:58:02;1.90;99.90
26270;DHT22;15937;50.612;6.656;2022-12-18T14:02:14;1.90;99.90
26270;DHT22;15937;50.612;6.656;2022-12-18T14:06:19;1.80;99.90
26270;DHT22;15937;50.612;6.656;2022-12-18T14:10:21;1.70;99.90
26270;DHT22;15937;50.612;6.656;2022-12-18T14:14:44;1.70;99.90
26270;DHT22;15937;50.612;6.656;2022-12-18T14:18:52;1.60;99.90
26270;DHT22;15937;50.612;6.656;2022-12-18T14:23:30;1.60;99.90
26270;DHT22;15937;50.612;6.656;2022-12-18T14:27:36;1.60;99.90
26270;DHT22;15937;50.612;6.656;2022-12-18T14:31:38;1.70;99.90
26270;DHT22;15937;50.612;6.656;2022-12-18T14:35:52;1.70;99.90
26270;DHT22;15937;50.612;6.656;2022-12-18T14:39:55;1.70;99.90
26270;DHT22;15937;50.612;6.656;2022-12-18T14:44:04;1.60;99.90
26270;DHT22;15937;50.612;6.656;2022-12-18T14:48:07;1.60;99.90
26270;DHT22;15937;50.612;6.656;2022-12-18T14:52:18;1.50;99.90
26270;DHT22;15937;50.612;6.656;2022-12-18T14:56:23;1.50;99.90
26270;DHT22;15937;50.612;6.656;2022-12-18T15:00:26;1.50;99.90
26270;DHT22;15937;50.612;6.656;2022-12-18T15:04:33;1.50;99.90
26270;DHT22;15937;50.612;6.656;2022-12-18T15:08:37;1.60;99.90
26270;DHT22;15937;50.612;6.656;2022-12-18T15:12:46;1.60;99.90
26270;DHT22;15937;50.612;6.656;2022-12-18T15:16:52;1.70;99.90
26270;DHT22;15937;50.612;6.656;2022-12-18T15:20:59;1.80;99.90
26270;DHT22;15937;50.612;6.656;2022-12-18T15:25:02;1.80;99.90
26270;DHT22;15937;50.612;6.656;2022-12-18T15:29:04;1.70;99.90
26270;DHT22;15937;50.612;6.656;2022-12-18T15:33:25;1.80;99.90
26270;DHT22;15937;50.612;6.656;2022-12-18T15:37:27;1.80;99.90
26270;DHT22;15937;50.612;6.656;2022-12-18T15:41:30;1.80;99.90
26270;DHT22;15937;50.612;6.656;2022-12-18T15:45:33;1.80;99.90
26270;DHT22;15937;50.612;6.656;2022-12-18T15:49:35;1.80;99.90
26270;DHT22;15937;50.612;6.656;2022-12-18T15:53:37;1.70;99.90
26270;DHT22;15937;50.612;6.656;2022-12-18T15:57:40;1.80;99.90
26270;DHT22;15937;50.612;6.656;2022-12-18T16:01:42;1.80;99.90
26270;DHT22;15937;50.612;6.656;2022-12-18T16:05:45;1.80;99.90
26270;DHT22;15937;50.612;6.656;2022-12-18T16:09:46;1.80;99.90
26270;DHT22;15937;50.612;6.656;2022-12-18T16:13:48;1.80;99.90
26270;DHT22;15937;50.612;6.656;2022-12-18T16:17:52;1.70;99.90
26270;DHT22;15937;50.612;6.656;2022-12-18T16:21:54;1.70;99.90
26270;DHT22;15937;50.612;6.656;2022-12-18T16:25:56;1.70;99.90
26270;DHT22;15937;50.612;6.656;2022-12-18T16:29:58;1.70;99.90
26270;DHT22;15937;50.612;6.656;2022-12-18T16:34:19;1.70;99.90
26270;DHT22;15937;50.612;6.656;2022-12-18T16:38:27;1.70;99.90
26270;DHT22;15937;50.612;6.656;2022-12-18T16:42:28;1.70;99.90
26270;DHT22;15937;50.612;6.656;2022-12-18T16:46:30;1.70;99.90
26270;DHT22;15937;50.612;6.656;2022-12-18T16:50:32;1.70;99.90
26270;DHT22;15937;50.612;6.656;2022-12-18T16:54:34;1.60;99.90
26270;DHT22;15937;50.612;6.656;2022-12-18T16:58:37;1.60;99.90
26270;DHT22;15937;50.612;6.656;2022-12-18T17:02:40;1.60;99.90
26270;DHT22;15937;50.612;6.656;2022-12-18T17:06:43;1.50;99.90
26270;DHT22;15937;50.612;6.656;2022-12-18T17:10:47;1.50;99.90
26270;DHT22;15937;50.612;6.656;2022-12-18T17:14:49;1.40;99.90
26270;DHT22;15937;50.612;6.656;2022-12-18T17:18:51;1.40;99.90
26270;DHT22;15937;50.612;6.656;2022-12-18T17:22:59;1.40;99.90
26270;DHT22;15937;50.612;6.656;2022-12-18T17:27:02;1.40;99.90
26270;DHT22;15937;50.612;6.656;2022-12-18T17:31:11;1.40;99.90
26270;DHT22;15937;50.612;6.656;2022-12-18T17:35:26;1.40;99.90
26270;DHT22;15937;50.612;6.656;2022-12-18T17:39:35;1.40;99.90
26270;DHT22;15937;50.612;6.656;2022-12-18T17:43:38;1.30;99.90
26270;DHT22;15937;50.612;6.656;2022-12-18T17:47:59;1.40;99.90
26270;DHT22;15937;50.612;6.656;2022-12-18T17:52:14;1.30;99.90
26270;DHT22;15937;50.612;6.656;2022-12-18T17:56:21;1.30;99.90
26270;DHT22;15937;50.612;6.656;2022-12-18T18:00:48;1.40;99.90
26270;DHT22;15937;50.612;6.656;2022-12-18T18:05:14;1.40;99.90
26270;DHT22;15937;50.612;6.656;2022-12-18T18:09:40;1.40;99.90
26270;DHT22;15937;50.612;6.656;2022-12-18T18:14:09;1.40;99.90
26270;DHT22;15937;50.612;6.656;2022-12-18T18:19:01;1.50;99.90
26270;DHT22;15937;50.612;6.656;2022-12-18T18:23:03;1.50;99.90
26270;DHT22;15937;50.612;6.656;2022-12-18T18:27:05;1.50;99.90
26270;DHT22;15937;50.612;6.656;2022-12-18T18:31:08;1.50;99.90
26270;DHT22;15937;50.612;6.656;2022-12-18T18:35:10;1.60;99.90
26270;DHT22;15937;50.612;6.656;2022-12-18T18:39:31;1.60;99.90
26270;DHT22;15937;50.612;6.656;2022-12-18T18:43:33;1.60;99.90
26270;DHT22;15937;50.612;6.656;2022-12-18T18:47:35;1.60;99.90
26270;DHT22;15937;50.612;6.656;2022-12-18T18:51:37;1.60;99.90
26270;DHT22;15937;50.612;6.656;2022-12-18T18:55:38;1.60;99.90
26270;DHT22;15937;50.612;6.656;2022-12-18T18:59:40;1.70;99.90
26270;DHT22;15937;50.612;6.656;2022-12-18T19:03:42;1.70;99.90
26270;DHT22;15937;50.612;6.656;2022-12-18T19:07:46;1.90;99.90
26270;DHT22;15937;50.612;6.656;2022-12-18T19:11:48;2.10;99.90
26270;DHT22;15937;50.612;6.656;2022-12-18T19:16:09;1.90;99.90
26270;DHT22;15937;50.612;6.656;2022-12-18T19:20:11;1.80;99.90
26270;DHT22;15937;50.612;6.656;2022-12-18T19:24:12;1.80;99.90
26270;DHT22;15937;50.612;6.656;2022-12-18T19:28:14;1.70;99.90
26270;DHT22;15937;50.612;6.656;2022-12-18T19:32:22;1.70;99.90
26270;DHT22;15937;50.612;6.656;2022-12-18T19:36:25;1.70;99.90
26270;DHT22;15937;50.612;6.656;2022-12-18T19:40:27;1.70;99.90
26270;DHT22;15937;50.612;6.656;2022-12-18T19:44:29;1.70;99.90
26270;DHT22;15937;50.612;6.656;2022-12-18T19:48:31;1.60;99.90
26270;DHT22;15937;50.612;6.656;2022-12-18T19:52:33;1.70;99.90
26270;DHT22;15937;50.612;6.656;2022-12-18T19:56:35;1.80;99.90
26270;DHT22;15937;50.612;6.656;2022-12-18T20:00:36;1.80;99.90
26270;DHT22;15937;50.612;6.656;2022-12-18T20:04:38;1.80;99.90
26270;DHT22;15937;50.612;6.656;2022-12-18T20:08:40;1.90;99.90
26270;DHT22;15937;50.612;6.656;2022-12-18T20:12:41;1.90;99.90
26270;DHT22;15937;50.612;6.656;2022-12-18T20:16:43;1.90;99.90
26270;DHT22;15937;50.612;6.656;2022-12-18T20:20:45;2.00;99.90
26270;DHT22;15937;50.612;6.656;2022-12-18T20:24:48;2.10;99.90
26270;DHT22;15937;50.612;6.656;2022-12-18T20:28:51;2.20;99.90
26270;DHT22;15937;50.612;6.656;2022-12-18T20:32:52;2.30;99.90
26270;DHT22;15937;50.612;6.656;2022-12-18T20:36:54;2.40;99.90
26270;DHT22;15937;50.612;6.656;2022-12-18T20:40:56;2.40;99.90
26270;DHT22;15937;50.612;6.656;2022-12-18T20:44:58;2.50;99.90
26270;DHT22;15937;50.612;6.656;2022-12-18T20:48:59;2.50;99.90
26270;DHT22;15937;50.612;6.656;2022-12-18T20:53:01;2.50;99.90
26270;DHT22;15937;50.612;6.656;2022-12-18T20:57:03;2.40;99.90
26270;DHT22;15937;50.612;6.656;2022-12-18T21:01:12;2.50;99.90
26270;DHT22;15937;50.612;6.656;2022-12-18T21:05:14;2.50;99.90
26270;DHT22;15937;50.612;6.656;2022-12-18T21:09:15;2.50;99.90
26270;DHT22;15937;50.612;6.656;2022-12-18T21:13:36;2.40;99.90
26270;DHT22;15937;50.612;6.656;2022-12-18T21:17:37;2.40;99.90
26270;DHT22;15937;50.612;6.656;2022-12-18T21:21:45;2.40;99.90
26270;DHT22;15937;50.612;6.656;2022-12-18T21:25:47;2.30;99.90
26270;DHT22;15937;50.612;6.656;2022-12-18T21:29:56;2.30;99.90
26270;DHT22;15937;50.612;6.656;2022-12-18T21:33:58;2.30;99.90
26270;DHT22;15937;50.612;6.656;2022-12-18T21:38:02;2.30;99.90
26270;DHT22;15937;50.612;6.656;2022-12-18T21:42:06;2.30;99.90
26270;DHT22;15937;50.612;6.656;2022-12-18T21:46:26;2.30;99.90
26270;DHT22;15937;50.612;6.656;2022-12-18T21:50:28;2.30;99.90
26270;DHT22;15937;50.612;6.656;2022-12-18T21:59:37;2.30;99.90
26270;DHT22;15937;50.612;6.656;2022-12-18T22:03:39;2.40;99.90
26270;DHT22;15937;50.612;6.656;2022-12-18T22:07:41;2.40;99.90
26270;DHT22;15937;50.612;6.656;2022-12-18T22:11:43;2.40;99.90
26270;DHT22;15937;50.612;6.656;2022-12-18T22:15:44;2.50;99.90
26270;DHT22;15937;50.612;6.656;2022-12-18T22:19:46;2.50;99.90
26270;DHT22;15937;50.612;6.656;2022-12-18T22:23:51;2.30;99.90
26270;DHT22;15937;50.612;6.656;2022-12-18T22:27:54;2.50;99.90
26270;DHT22;15937;50.612;6.656;2022-12-18T22:32:16;2.60;99.90
26270;DHT22;15937;50.612;6.656;2022-12-18T22:36:36;2.70;99.90
26270;DHT22;15937;50.612;6.656;2022-12-18T22:40:38;2.70;99.90
26270;DHT22;15937;50.612;6.656;2022-12-18T22:44:39;2.70;99.90
26270;DHT22;15937;50.612;6.656;2022-12-18T22:48:41;2.60;99.90
26270;DHT22;15937;50.612;6.656;2022-12-18T22:52:43;2.50;99.90
26270;DHT22;15937;50.612;6.656;2022-12-18T22:56:44;2.50;99.90
26270;DHT22;15937;50.612;6.656;2022-12-18T23:00:46;2.50;99.90
26270;DHT22;15937;50.612;6.656;2022-12-18T23:04:48;2.50;99.90
26270;DHT22;15937;50.612;6.656;2022-12-18T23:09:03;2.60;99.90
26270;DHT22;15937;50.612;6.656;2022-12-18T23:13:05;2.60;99.90
26270;DHT22;15937;50.612;6.656;2022-12-18T23:17:07;2.70;99.90
26270;DHT22;15937;50.612;6.656;2022-12-18T23:21:09;2.70;99.90
26270;DHT22;15937;50.612;6.656;2022-12-18T23:25:12;2.60;99.90
26270;DHT22;15937;50.612;6.656;2022-12-18T23:29:13;2.50;99.90
26270;DHT22;15937;50.612;6.656;2022-12-18T23:33:15;2.40;99.90
26270;DHT22;15937;50.612;6.656;2022-12-18T23:37:16;2.40;99.90
26270;DHT22;15937;50.612;6.656;2022-12-18T23:41:38;2.30;99.90
26270;DHT22;15937;50.612;6.656;2022-12-18T23:45:40;2.40;99.90
26270;DHT22;15937;50.612;6.656;2022-12-18T23:49:42;2.40;99.90
26270;DHT22;15937;50.612;6.656;2022-12-18T23:53:44;2.40;99.90
26270;DHT22;15937;50.612;6.656;2022-12-18T23:57:45;2.40;99.90
